createdAt,value
2018-02-09T00:02:08.406Z,-4.00
2018-02-09T00:04:36.196Z,-3.90
2018-02-09T00:07:02.505Z,-3.90
2018-02-09T00:09:29.568Z,-4.00
2018-02-09T00:11:55.863Z,-4.10
2018-02-09T00:14:22.146Z,-4.10
2018-02-09T00:16:49.225Z,-4.20
2018-02-09T00:19:15.498Z,-4.30
2018-02-09T00:21:41.830Z,-4.20
2018-02-09T00:24:08.126Z,-4.20
2018-02-09T00:26:34.408Z,-4.10
2018-02-09T00:29:01.467Z,-4.20
2018-02-09T00:31:28.485Z,-4.20
2018-02-09T00:33:54.787Z,-4.20
2018-02-09T00:36:21.056Z,-4.20
2018-02-09T00:38:48.096Z,-4.20
2018-02-09T00:41:14.392Z,-4.20
2018-02-09T00:43:40.683Z,-4.10
2018-02-09T00:46:07.700Z,-4.20
2018-02-09T00:48:34.037Z,-4.20
2018-02-09T00:51:01.805Z,-4.40
2018-02-09T00:53:29.577Z,-4.40
2018-02-09T00:55:56.617Z,-4.40
2018-02-09T00:58:22.929Z,-4.50
2018-02-09T01:00:49.234Z,-4.30
2018-02-09T01:03:15.553Z,-4.40
2018-02-09T01:05:41.887Z,-4.30
2018-02-09T01:08:08.211Z,-4.20
2018-02-09T01:10:34.511Z,-4.20
2018-02-09T01:13:01.532Z,-4.30
2018-02-09T01:15:27.871Z,-4.40
2018-02-09T01:17:54.904Z,-4.40
2018-02-09T01:20:21.205Z,-4.50
2018-02-09T01:22:47.473Z,-4.40
2018-02-09T01:25:13.786Z,-4.40
2018-02-09T01:27:40.087Z,-4.40
2018-02-09T01:30:06.407Z,-4.40
2018-02-09T01:32:32.700Z,-4.50
2018-02-09T01:34:59.003Z,-4.60
2018-02-09T01:37:25.371Z,-4.60
2018-02-09T01:39:52.395Z,-4.70
2018-02-09T01:42:18.679Z,-4.80
2018-02-09T01:44:44.951Z,-4.70
2018-02-09T01:47:11.239Z,-4.60
2018-02-09T01:49:37.536Z,-4.50
2018-02-09T01:52:04.556Z,-4.60
2018-02-09T01:54:30.870Z,-4.60
2018-02-09T01:56:57.162Z,-4.60
2018-02-09T01:59:23.443Z,-4.50
2018-02-09T02:01:49.702Z,-4.50
2018-02-09T02:04:16.718Z,-4.70
2018-02-09T02:06:44.511Z,-4.70
2018-02-09T02:09:11.539Z,-4.50
2018-02-09T02:11:38.585Z,-4.60
2018-02-09T02:14:05.631Z,-4.60
2018-02-09T02:16:32.681Z,-4.50
2018-02-09T02:18:59.699Z,-4.60
2018-02-09T02:21:25.999Z,-4.60
2018-02-09T02:23:52.276Z,-4.60
2018-02-09T02:26:18.556Z,-4.60
2018-02-09T02:28:44.834Z,-4.70
2018-02-09T02:31:11.125Z,-4.80
2018-02-09T02:33:37.395Z,-4.80
2018-02-09T02:36:03.683Z,-4.70
2018-02-09T02:38:29.953Z,-4.70
2018-02-09T02:40:56.265Z,-4.70
2018-02-09T02:43:22.542Z,-4.90
2018-02-09T02:45:49.561Z,-4.80
2018-02-09T02:48:15.848Z,-4.80
2018-02-09T02:50:42.145Z,-4.70
2018-02-09T02:53:09.424Z,-4.90
2018-02-09T02:55:35.703Z,-5.00
2018-02-09T02:58:01.992Z,-4.90
2018-02-09T03:00:28.300Z,-4.80
2018-02-09T03:02:54.577Z,-4.80
2018-02-09T03:05:20.841Z,-4.80
2018-02-09T03:07:47.140Z,-4.90
2018-02-09T03:10:13.383Z,-4.90
2018-02-09T03:12:40.438Z,-4.80
2018-02-09T03:15:06.747Z,-4.80
2018-02-09T03:17:33.020Z,-4.80
2018-02-09T03:20:00.051Z,-4.90
2018-02-09T03:22:26.355Z,-4.90
2018-02-09T03:24:52.642Z,-4.90
2018-02-09T03:27:18.941Z,-4.80
2018-02-09T03:29:46.013Z,-4.90
2018-02-09T03:32:12.311Z,-4.90
2018-02-09T03:34:38.583Z,-4.90
2018-02-09T03:37:04.870Z,-5.00
2018-02-09T03:39:31.912Z,-5.00
2018-02-09T03:41:58.187Z,-5.00
2018-02-09T03:44:24.465Z,-5.00
2018-02-09T03:46:50.778Z,-5.00
2018-02-09T03:49:17.049Z,-5.00
2018-02-09T03:51:44.067Z,-5.00
2018-02-09T03:54:11.831Z,-5.10
2018-02-09T03:56:39.582Z,-5.20
2018-02-09T03:59:05.880Z,-5.20
2018-02-09T04:01:32.146Z,-5.20
2018-02-09T04:03:58.427Z,-5.10
2018-02-09T04:06:24.708Z,-5.10
2018-02-09T04:08:51.764Z,-5.10
2018-02-09T04:11:18.028Z,-5.20
2018-02-09T04:13:44.299Z,-5.20
2018-02-09T04:16:10.571Z,-5.10
2018-02-09T04:18:37.590Z,-5.10
2018-02-09T04:21:03.880Z,-5.10
2018-02-09T04:23:30.144Z,-5.20
2018-02-09T04:25:56.419Z,-5.20
2018-02-09T04:28:22.691Z,-5.10
2018-02-09T04:30:48.955Z,-5.20
2018-02-09T04:33:15.239Z,-5.30
2018-02-09T04:35:41.500Z,-5.20
2018-02-09T04:38:08.533Z,-5.30
2018-02-09T04:40:34.787Z,-5.40
2018-02-09T04:43:01.804Z,-5.40
2018-02-09T04:45:28.107Z,-5.50
2018-02-09T04:47:54.366Z,-5.30
2018-02-09T04:50:20.649Z,-5.30
2018-02-09T04:52:46.914Z,-5.30
2018-02-09T04:55:13.225Z,-5.30
2018-02-09T04:57:39.487Z,-5.10
2018-02-09T05:00:05.785Z,-5.10
2018-02-09T05:02:32.085Z,-5.30
2018-02-09T05:04:58.380Z,-5.20
2018-02-09T05:07:24.638Z,-5.30
2018-02-09T05:09:51.694Z,-5.20
2018-02-09T05:12:18.699Z,-5.30
2018-02-09T05:14:46.457Z,-5.40
2018-02-09T05:17:12.727Z,-5.30
2018-02-09T05:19:39.030Z,-5.30
2018-02-09T05:22:05.290Z,-5.30
2018-02-09T05:24:31.604Z,-5.30
2018-02-09T05:26:58.612Z,-5.30
2018-02-09T05:29:24.876Z,-5.40
2018-02-09T05:31:51.132Z,-5.30
2018-02-09T05:34:18.176Z,-5.40
2018-02-09T05:36:44.462Z,-5.50
2018-02-09T05:39:12.222Z,-5.50
2018-02-09T05:41:38.494Z,-5.50
2018-02-09T05:44:04.768Z,-5.40
2018-02-09T05:46:31.036Z,-5.40
2018-02-09T05:48:58.049Z,-5.40
2018-02-09T05:51:24.336Z,-5.50
2018-02-09T05:53:50.598Z,-5.50
2018-02-09T05:56:16.876Z,-5.60
2018-02-09T05:58:44.252Z,-5.50
2018-02-09T06:01:10.551Z,-5.50
2018-02-09T06:03:37.567Z,-5.40
2018-02-09T06:06:03.860Z,-5.50
2018-02-09T06:08:30.172Z,-5.40
2018-02-09T06:10:57.226Z,-5.50
2018-02-09T06:13:23.511Z,-5.60
2018-02-09T06:15:49.793Z,-5.30
2018-02-09T06:18:16.101Z,-5.40
2018-02-09T06:20:43.136Z,-5.40
2018-02-09T06:23:10.155Z,-5.40
2018-02-09T06:25:36.450Z,-5.50
2018-02-09T06:28:02.742Z,-5.40
2018-02-09T06:30:29.758Z,-5.50
2018-02-09T06:32:56.039Z,-5.60
2018-02-09T06:35:23.062Z,-5.60
2018-02-09T06:37:50.099Z,-5.60
2018-02-09T06:40:17.862Z,-5.80
2018-02-09T06:42:44.889Z,-5.70
2018-02-09T06:45:11.162Z,-5.80
2018-02-09T06:47:38.174Z,-5.60
2018-02-09T06:50:04.446Z,-5.70
2018-02-09T06:52:31.443Z,-5.50
2018-02-09T06:54:57.737Z,-5.50
2018-02-09T06:57:23.998Z,-5.40
2018-02-09T06:59:50.287Z,-5.50
2018-02-09T07:02:16.575Z,-5.50
2018-02-09T07:04:44.350Z,-5.50
2018-02-09T07:07:11.373Z,-5.40
2018-02-09T07:09:37.664Z,-5.40
2018-02-09T07:12:03.930Z,-5.30
2018-02-09T07:14:30.231Z,-5.30
2018-02-09T07:16:56.507Z,-5.30
2018-02-09T07:19:24.298Z,-5.20
2018-02-09T07:21:51.295Z,-5.20
2018-02-09T07:24:17.593Z,-5.20
2018-02-09T07:26:43.854Z,-5.20
2018-02-09T07:29:10.181Z,-5.20
2018-02-09T07:31:37.951Z,-5.10
2018-02-09T07:34:04.211Z,-5.10
2018-02-09T07:36:31.234Z,-4.90
2018-02-09T07:38:58.292Z,-5.00
2018-02-09T07:41:25.314Z,-5.00
2018-02-09T07:43:51.587Z,-5.10
2018-02-09T07:46:18.616Z,-4.90
2018-02-09T07:48:46.502Z,-4.90
2018-02-09T07:51:13.508Z,-4.90
2018-02-09T07:53:39.803Z,-4.90
2018-02-09T07:56:06.089Z,-4.70
2018-02-09T07:58:32.361Z,-4.80
2018-02-09T08:00:58.656Z,-4.80
2018-02-09T08:03:25.667Z,-4.50
2018-02-09T08:05:51.961Z,-4.60
2018-02-09T08:08:18.242Z,-4.40
2018-02-09T08:10:44.531Z,-4.30
2018-02-09T08:13:10.803Z,-4.40
2018-02-09T08:15:37.087Z,-4.30
2018-02-09T08:18:03.375Z,-4.40
2018-02-09T08:20:30.429Z,-4.20
2018-02-09T08:22:57.437Z,-4.20
2018-02-09T08:25:23.703Z,-4.20
2018-02-09T08:27:50.707Z,-3.90
2018-02-09T08:30:16.996Z,-3.90
2018-02-09T08:32:44.005Z,-4.00
2018-02-09T08:35:10.266Z,-4.10
2018-02-09T08:37:37.298Z,-4.00
2018-02-09T08:40:04.304Z,-3.80
2018-02-09T08:42:30.576Z,-3.80
2018-02-09T08:44:57.603Z,-3.70
2018-02-09T08:47:24.603Z,-3.50
2018-02-09T08:49:50.864Z,-3.60
2018-02-09T08:52:17.137Z,-3.50
2018-02-09T08:54:44.155Z,-3.50
2018-02-09T08:57:10.470Z,-3.50
2018-02-09T08:59:36.728Z,-3.40
2018-02-09T09:02:03.012Z,-3.30
2018-02-09T09:04:29.278Z,-3.20
2018-02-09T09:06:55.710Z,-3.10
2018-02-09T09:09:22.149Z,-3.10
2018-02-09T09:11:49.199Z,-2.90
2018-02-09T09:14:15.515Z,-2.90
2018-02-09T09:16:41.782Z,-2.90
2018-02-09T09:19:08.096Z,-2.80
2018-02-09T09:21:35.119Z,-2.80
2018-02-09T09:24:01.416Z,-2.80
2018-02-09T09:26:27.708Z,-2.70
2018-02-09T09:28:54.722Z,-2.70
2018-02-09T09:31:20.987Z,-2.80
2018-02-09T09:33:47.284Z,-2.70
2018-02-09T09:36:13.578Z,-2.50
2018-02-09T09:38:39.857Z,-2.40
2018-02-09T09:41:06.916Z,-2.30
2018-02-09T09:43:33.951Z,-2.40
2018-02-09T09:46:01.002Z,-2.20
2018-02-09T09:48:27.312Z,-2.30
2018-02-09T09:50:55.423Z,-2.20
2018-02-09T09:53:22.602Z,-2.20
2018-02-09T09:55:50.309Z,-1.90
2018-02-09T09:58:16.579Z,-1.90
2018-02-09T10:00:42.872Z,-1.80
2018-02-09T10:03:09.130Z,-1.80
2018-02-09T10:05:35.415Z,-1.80
2018-02-09T10:08:01.696Z,-1.80
2018-02-09T10:10:27.970Z,-1.70
2018-02-09T10:12:55.037Z,-1.60
2018-02-09T10:15:22.056Z,-1.40
2018-02-09T10:17:48.336Z,-1.50
2018-02-09T10:20:14.606Z,-1.50
2018-02-09T10:22:40.928Z,-1.40
2018-02-09T10:25:07.211Z,-1.30
2018-02-09T10:27:33.527Z,-1.40
2018-02-09T10:30:00.581Z,-1.20
2018-02-09T10:32:27.612Z,-1.20
2018-02-09T10:34:54.646Z,-1.10
2018-02-09T10:37:20.910Z,-1.20
2018-02-09T10:39:47.923Z,-1.00
2018-02-09T10:42:14.253Z,-1.10
2018-02-09T10:44:40.547Z,-1.00
2018-02-09T10:47:06.868Z,-1.10
2018-02-09T10:49:33.135Z,-0.80
2018-02-09T10:51:59.403Z,-0.90
2018-02-09T10:54:26.733Z,-0.70
2018-02-09T10:56:53.767Z,-0.70
2018-02-09T10:59:20.035Z,-0.80
2018-02-09T11:01:46.337Z,-0.50
2018-02-09T11:04:12.650Z,-0.40
2018-02-09T11:06:38.937Z,-0.60
2018-02-09T11:09:05.279Z,-0.50
2018-02-09T11:11:31.590Z,-0.40
2018-02-09T11:13:57.897Z,-0.30
2018-02-09T11:16:24.926Z,-0.30
2018-02-09T11:18:51.954Z,-0.30
2018-02-09T11:21:18.251Z,-0.30
2018-02-09T11:23:44.576Z,-0.10
2018-02-09T11:26:10.893Z,-0.10
2018-02-09T11:28:37.955Z,0.10
2018-02-09T11:31:04.226Z,0.00
2018-02-09T11:33:30.546Z,0.20
2018-02-09T11:35:56.809Z,0.10
2018-02-09T11:38:23.120Z,0.00
2018-02-09T11:40:49.387Z,0.10
2018-02-09T11:43:16.404Z,0.20
2018-02-09T11:45:42.700Z,0.10
2018-02-09T11:48:08.992Z,0.20
2018-02-09T11:50:36.024Z,0.40
2018-02-09T11:53:03.032Z,0.30
2018-02-09T11:55:29.327Z,0.30
2018-02-09T11:57:55.595Z,0.50
2018-02-09T12:00:21.905Z,0.40
2018-02-09T12:02:48.302Z,0.50
2018-02-09T12:05:15.330Z,0.50
2018-02-09T12:07:41.691Z,0.50
2018-02-09T12:10:07.985Z,0.50
2018-02-09T12:12:35.005Z,0.80
2018-02-09T12:15:01.302Z,0.80
2018-02-09T12:17:28.297Z,0.70
2018-02-09T12:19:54.584Z,0.70
2018-02-09T12:22:20.851Z,0.60
2018-02-09T12:24:47.151Z,0.70
2018-02-09T12:27:13.431Z,0.90
2018-02-09T12:29:39.695Z,0.80
2018-02-09T12:32:05.991Z,1.00
2018-02-09T12:34:33.009Z,1.20
2018-02-09T12:36:59.285Z,1.20
2018-02-09T12:39:26.321Z,1.20
2018-02-09T12:41:53.361Z,1.30
2018-02-09T12:44:19.624Z,1.20
2018-02-09T12:46:45.944Z,1.20
2018-02-09T12:49:13.075Z,1.60
2018-02-09T12:51:40.190Z,1.60
2018-02-09T12:54:06.516Z,1.60
2018-02-09T12:56:32.808Z,1.70
2018-02-09T12:58:59.090Z,2.00
2018-02-09T13:01:25.358Z,2.20
2018-02-09T13:03:51.644Z,2.30
2018-02-09T13:06:17.929Z,2.40
2018-02-09T13:08:44.223Z,2.80
2018-02-09T13:11:10.523Z,2.90
2018-02-09T13:13:36.821Z,3.00
2018-02-09T13:16:03.108Z,3.10
2018-02-09T13:18:41.783Z,3.60
2018-02-09T13:21:08.776Z,3.20
2018-02-09T13:24:00.816Z,3.60
2018-02-09T13:26:27.069Z,3.60
2018-02-09T13:28:58.294Z,3.80
2018-02-09T13:31:25.325Z,4.20
2018-02-09T13:33:51.633Z,4.10
2018-02-09T13:36:17.929Z,3.90
2018-02-09T13:38:44.250Z,3.80
2018-02-09T13:41:10.525Z,4.30
2018-02-09T13:43:36.879Z,4.20
2018-02-09T13:46:03.902Z,4.00
2018-02-09T13:48:30.192Z,3.90
2018-02-09T13:50:56.507Z,4.00
2018-02-09T13:53:22.804Z,4.20
2018-02-09T13:55:49.070Z,4.50
2018-02-09T13:58:15.377Z,4.50
2018-02-09T14:00:42.469Z,4.40
2018-02-09T14:03:08.823Z,4.30
2018-02-09T14:05:35.122Z,4.40
2018-02-09T14:08:01.416Z,4.30
2018-02-09T14:10:28.452Z,4.50
2018-02-09T14:12:55.483Z,4.50
2018-02-09T14:15:21.779Z,4.40
2018-02-09T14:17:48.072Z,4.60
2018-02-09T14:20:15.095Z,4.70
2018-02-09T14:22:41.388Z,4.70
2018-02-09T14:25:07.663Z,4.50
2018-02-09T14:27:33.949Z,4.80
2018-02-09T14:30:00.223Z,4.70
2018-02-09T14:32:26.488Z,4.40
2018-02-09T14:34:52.812Z,4.40
2018-02-09T14:37:19.840Z,4.30
2018-02-09T14:39:46.880Z,4.50
2018-02-09T14:42:13.154Z,4.40
2018-02-09T14:44:39.480Z,4.50
2018-02-09T14:47:05.758Z,4.30
2018-02-09T14:49:32.048Z,4.40
2018-02-09T14:51:58.411Z,4.30
2018-02-09T14:54:24.667Z,3.90
2018-02-09T14:56:51.686Z,4.20
2018-02-09T14:59:17.964Z,4.20
2018-02-09T15:01:44.250Z,3.80
2018-02-09T15:04:10.527Z,3.50
2018-02-09T15:06:36.797Z,3.40
2018-02-09T15:09:03.100Z,3.20
2018-02-09T15:11:29.396Z,3.20
2018-02-09T15:13:55.702Z,3.10
2018-02-09T15:16:21.980Z,3.10
2018-02-09T15:18:48.242Z,3.00
2018-02-09T15:21:14.527Z,2.80
2018-02-09T15:23:40.798Z,2.70
2018-02-09T15:26:07.100Z,2.40
2018-02-09T15:28:33.402Z,2.40
2018-02-09T15:31:00.434Z,2.30
2018-02-09T15:33:27.450Z,2.20
2018-02-09T15:35:53.772Z,2.10
2018-02-09T15:38:20.051Z,2.00
2018-02-09T15:40:47.055Z,1.60
2018-02-09T15:43:13.352Z,1.60
2018-02-09T15:45:39.652Z,1.50
2018-02-09T15:48:05.954Z,1.40
2018-02-09T15:50:32.316Z,1.10
2018-02-09T15:52:59.353Z,0.90
2018-02-09T15:55:25.615Z,0.80
2018-02-09T15:57:51.901Z,0.70
2018-02-09T16:00:18.175Z,0.90
2018-02-09T16:02:44.450Z,0.80
2018-02-09T16:05:10.742Z,0.80
2018-02-09T16:07:36.999Z,0.80
2018-02-09T16:10:03.318Z,0.70
2018-02-09T16:12:29.599Z,0.60
2018-02-09T16:14:56.631Z,0.40
2018-02-09T16:17:23.652Z,0.30
2018-02-09T16:19:49.957Z,0.20
2018-02-09T16:22:16.239Z,0.50
2018-02-09T16:24:43.469Z,0.20
2018-02-09T16:27:09.776Z,0.10
2018-02-09T16:29:36.075Z,0.00
2018-02-09T16:32:03.153Z,0.00
2018-02-09T16:34:29.428Z,-0.10
2018-02-09T16:36:56.432Z,0.00
2018-02-09T16:39:22.711Z,-0.10
2018-02-09T16:41:49.733Z,-0.10
2018-02-09T16:44:16.822Z,-0.20
2018-02-09T16:46:43.191Z,-0.30
2018-02-09T16:49:09.475Z,-0.30
2018-02-09T16:51:35.777Z,-0.40
2018-02-09T16:54:02.672Z,-0.60
2018-02-09T16:56:29.269Z,-0.80
2018-02-09T16:58:56.275Z,-0.80
2018-02-09T17:01:22.581Z,-0.90
2018-02-09T17:03:48.887Z,-0.90
2018-02-09T17:06:15.988Z,-0.80
2018-02-09T17:08:43.054Z,-0.70
2018-02-09T17:11:09.339Z,-0.70
2018-02-09T17:13:35.623Z,-0.70
2018-02-09T17:16:02.676Z,-0.60
2018-02-09T17:18:28.998Z,-0.60
2018-02-09T17:20:56.024Z,-0.60
2018-02-09T17:23:22.290Z,-0.60
2018-02-09T17:25:49.315Z,-0.40
2018-02-09T17:28:15.585Z,-0.50
2018-02-09T17:30:41.884Z,-0.30
2018-02-09T17:33:08.487Z,-0.40
2018-02-09T17:35:34.769Z,-0.40
2018-02-09T17:38:01.810Z,-0.40
2018-02-09T17:40:28.159Z,-0.50
2018-02-09T17:42:54.456Z,-0.50
2018-02-09T17:45:21.566Z,-0.40
2018-02-09T17:47:47.847Z,-0.50
2018-02-09T17:50:14.863Z,-0.20
2018-02-09T17:52:41.151Z,-0.20
2018-02-09T17:55:07.408Z,-0.20
2018-02-09T17:57:33.721Z,-0.20
2018-02-09T18:00:00.051Z,0.00
2018-02-09T18:02:27.089Z,-0.10
2018-02-09T18:04:53.335Z,-0.20
2018-02-09T18:07:19.629Z,-0.10
2018-02-09T18:09:45.943Z,-0.10
2018-02-09T18:12:12.258Z,-0.10
2018-02-09T18:14:38.544Z,-0.10
2018-02-09T18:17:04.840Z,0.00
2018-02-09T18:19:31.123Z,0.10
2018-02-09T18:21:57.398Z,0.20
2018-02-09T18:24:24.695Z,0.10
2018-02-09T18:26:50.974Z,0.10
2018-02-09T18:29:18.000Z,0.20
2018-02-09T18:31:44.272Z,0.10
2018-02-09T18:34:10.559Z,0.20
2018-02-09T18:36:36.849Z,0.20
2018-02-09T18:39:03.165Z,0.10
2018-02-09T18:41:29.440Z,0.20
2018-02-09T18:43:55.736Z,0.20
2018-02-09T18:46:22.052Z,0.20
2018-02-09T18:48:48.415Z,0.20
2018-02-09T18:51:14.775Z,0.00
2018-02-09T18:53:41.142Z,0.00
2018-02-09T18:56:07.462Z,-0.10
2018-02-09T18:58:33.747Z,0.00
2018-02-09T19:01:00.057Z,-0.20
2018-02-09T19:03:26.369Z,-0.20
2018-02-09T19:05:52.657Z,-0.20
2018-02-09T19:08:19.690Z,-0.50
2018-02-09T19:10:46.777Z,-0.50
2018-02-09T19:13:13.069Z,-0.50
2018-02-09T19:15:40.129Z,-0.50
2018-02-09T19:18:07.228Z,-0.60
2018-02-09T19:20:33.521Z,-0.60
2018-02-09T19:23:00.620Z,-0.60
2018-02-09T19:25:26.906Z,-0.70
2018-02-09T19:27:53.913Z,-0.70
2018-02-09T19:30:20.209Z,-0.70
2018-02-09T19:32:46.495Z,-0.70
2018-02-09T19:35:13.542Z,-0.90
2018-02-09T19:37:40.590Z,-1.10
2018-02-09T19:40:07.638Z,-1.00
2018-02-09T19:42:33.956Z,-1.10
2018-02-09T19:45:00.260Z,-0.90
2018-02-09T19:47:26.567Z,-1.10
2018-02-09T19:49:52.876Z,-1.20
2018-02-09T19:52:19.148Z,-1.10
2018-02-09T19:54:45.407Z,-1.30
2018-02-09T19:57:12.415Z,-1.10
2018-02-09T19:59:38.748Z,-1.10
2018-02-09T20:02:05.013Z,-1.00
2018-02-09T20:04:31.340Z,-1.20
2018-02-09T20:06:57.607Z,-1.00
2018-02-09T20:09:23.849Z,-1.00
2018-02-09T20:11:50.116Z,-1.20
2018-02-09T20:14:16.398Z,-1.30
2018-02-09T20:16:44.228Z,-1.60
2018-02-09T20:19:11.246Z,-1.60
2018-02-09T20:21:37.844Z,-1.70
2018-02-09T20:24:04.108Z,-1.60
2018-02-09T20:26:30.395Z,-1.60
2018-02-09T20:28:56.651Z,-1.50
2018-02-09T20:31:22.949Z,-1.50
2018-02-09T20:33:49.209Z,-1.50
2018-02-09T20:36:15.476Z,-1.70
2018-02-09T20:38:42.506Z,-1.50
2018-02-09T20:41:08.767Z,-1.60
2018-02-09T20:43:35.101Z,-1.20
2018-02-09T20:46:02.137Z,-1.30
2018-02-09T20:48:29.176Z,-1.20
2018-02-09T20:50:56.196Z,-1.10
2018-02-09T20:53:24.001Z,-1.20
2018-02-09T20:55:51.004Z,-1.10
2018-02-09T20:58:17.282Z,-1.20
2018-02-09T21:00:44.295Z,-1.20
2018-02-09T21:03:10.587Z,-1.30
2018-02-09T21:05:36.852Z,-1.10
2018-02-09T21:08:03.198Z,-1.10
2018-02-09T21:10:30.386Z,-0.80
2018-02-09T21:12:56.653Z,-0.80
2018-02-09T21:15:22.914Z,-0.70
2018-02-09T21:17:49.971Z,-0.90
2018-02-09T21:20:16.449Z,-0.90
2018-02-09T21:22:42.736Z,-0.90
2018-02-09T21:25:09.737Z,-0.90
2018-02-09T21:27:36.095Z,-0.90
2018-02-09T21:30:02.402Z,-1.00
2018-02-09T21:32:28.718Z,-0.90
2018-02-09T21:34:55.017Z,-0.90
2018-02-09T21:37:21.279Z,-0.90
2018-02-09T21:39:47.571Z,-0.80
2018-02-09T21:42:13.888Z,-0.70
2018-02-09T21:44:40.174Z,-0.70
2018-02-09T21:47:06.432Z,-0.60
2018-02-09T21:49:32.728Z,-0.70
2018-02-09T21:51:59.006Z,-0.70
2018-02-09T21:54:26.073Z,-0.60
2018-02-09T21:56:52.343Z,-0.60
2018-02-09T21:59:18.613Z,-0.60
2018-02-09T22:01:45.660Z,-0.80
2018-02-09T22:04:12.056Z,-0.80
2018-02-09T22:06:38.307Z,-0.60
2018-02-09T22:09:05.340Z,-0.70
2018-02-09T22:11:31.612Z,-0.80
2018-02-09T22:13:57.882Z,-0.70
2018-02-09T22:16:24.172Z,-0.70
2018-02-09T22:18:50.454Z,-0.70
2018-02-09T22:21:17.517Z,-0.60
2018-02-09T22:23:44.550Z,-0.60
2018-02-09T22:26:10.832Z,-0.60
2018-02-09T22:28:37.127Z,-0.60
2018-02-09T22:31:04.143Z,-0.70
2018-02-09T22:33:30.406Z,-0.70
2018-02-09T22:35:57.417Z,-0.70
2018-02-09T22:38:23.693Z,-0.80
2018-02-09T22:40:50.009Z,-0.80
2018-02-09T22:43:17.013Z,-0.80
2018-02-09T22:45:43.311Z,-0.80
2018-02-09T22:48:09.572Z,-0.70
2018-02-09T22:50:35.856Z,-0.50
2018-02-09T22:53:02.898Z,-0.70
2018-02-09T22:55:29.913Z,-0.80
2018-02-09T22:57:56.147Z,-0.80
2018-02-09T23:00:22.427Z,-0.70
2018-02-09T23:02:48.694Z,-0.60
2018-02-09T23:05:14.956Z,-0.70
2018-02-09T23:07:41.989Z,-0.70
2018-02-09T23:10:09.026Z,-0.60
2018-02-09T23:12:36.060Z,-0.50
2018-02-09T23:15:02.353Z,-0.60
2018-02-09T23:17:28.631Z,-0.60
2018-02-09T23:19:55.669Z,-0.60
2018-02-09T23:22:21.977Z,-0.70
2018-02-09T23:24:48.243Z,-0.70
2018-02-09T23:27:14.505Z,-0.70
2018-02-09T23:29:40.785Z,-0.80
2018-02-09T23:32:07.052Z,-0.80
2018-02-09T23:34:34.077Z,-0.70
2018-02-09T23:37:01.097Z,-0.80
2018-02-09T23:39:27.372Z,-0.90
2018-02-09T23:41:54.542Z,-0.70
2018-02-09T23:44:20.810Z,-0.80
2018-02-09T23:46:47.098Z,-0.70
2018-02-09T23:49:13.353Z,-0.70
2018-02-09T23:51:39.619Z,-0.70
2018-02-09T23:54:05.866Z,-0.40
2018-02-09T23:56:32.143Z,-0.50
2018-02-09T23:58:58.401Z,-0.60
